Time;durP1;ratioP1;P1;durP2;ratioP2;P2;SDS_P1;SDS_P2;PMS_P1;PMS_P2;Temp;Humidity;BMP_temperature;BMP_pressure;BME280_temperature;BME280_humidity;BME280_pressure;Samples;Min_cycle;Max_cycle;Signal;HPM_P1;HPM_P2
2021/05/06 00:01:22;;;;;;;;;;;;;;;10.26;43.41;100214.81;5056722;27;99264;-80
2021/05/06 00:34:09;;;;;;;;;;;;;;;10.02;43.85;100231.66;5001855;27;97441;-80
2021/05/06 00:36:36;;;;;;;;;;;;;;;9.85;44.56;100241.13;5053727;27;98967;-81
2021/05/06 00:39:05;;;;;;;;;;;;;;;10.02;43.84;100240.44;5052881;27;98497;-81
2021/05/06 00:41:47;;;;;;;;;;;;;;;10.31;43.16;100240.09;5056860;27;98349;-81
2021/05/06 00:44:48;;;;;;;;;;;;;;;10.03;43.47;100236.91;5059749;27;97867;-81
2021/05/06 00:55:39;;;;;;;;;;;;;;;9.68;44.72;100248.88;5049257;27;97204;-80
2021/05/06 01:01:05;;;;;;;;;;;;;;;9.76;44.40;100251.19;5012702;27;97122;-79
2021/05/06 01:03:40;;;;;;;;;;;;;;;9.78;44.43;100247.56;5047927;27;96840;-78
2021/05/06 01:06:07;;;;;;;;;;;;;;;9.65;44.61;100254.25;5052715;27;99328;-79
2021/05/06 01:08:37;;;;;;;;;;;;;;;9.61;44.76;100250.03;5053148;27;99027;-79
2021/05/06 01:11:10;;;;;;;;;;;;;;;9.70;44.55;100247.03;5050604;27;96784;-79
2021/05/06 01:13:39;;;;;;;;;;;;;;;9.79;44.49;100248.41;5041108;27;96909;-79
2021/05/06 01:16:05;;;;;;;;;;;;;;;9.24;45.48;100247.97;5048435;27;99010;-79
2021/05/06 01:18:31;;;;;;;;;;;;;;;9.69;44.87;100258.50;5046937;27;98858;-79
2021/05/06 01:20:59;;;;;;;;;;;;;;;9.24;45.26;100260.28;5053886;27;97209;-79
2021/05/06 01:23:27;;;;;;;;;;;;;;;9.51;44.81;100256.59;5054782;27;98030;-80
2021/05/06 01:25:56;;;;;;;;;;;;;;;9.95;43.79;100247.75;5048758;27;99199;-80
2021/05/06 01:28:25;;;;;;;;;;;;;;;10.05;43.47;100244.72;5057447;27;99009;-80
2021/05/06 01:30:56;;;;;;;;;;;;;;;9.86;43.35;100248.13;5053404;27;97605;-81
2021/05/06 01:33:28;;;;;;;;;;;;;;;9.82;43.61;100251.81;5055249;27;97200;-79
2021/05/06 01:35:57;;;;;;;;;;;;;;;10.08;42.95;100252.53;5047900;27;99194;-80
2021/05/06 01:41:35;;;;;;;;;;;;;;;9.92;43.16;100253.16;5055561;27;98574;-81
2021/05/06 01:44:05;;;;;;;;;;;;;;;9.62;43.59;100256.16;5053036;27;96828;-82
2021/05/06 01:49:31;;;;;;;;;;;;;;;9.94;43.18;100251.31;5057277;27;97144;-81
2021/05/06 01:57:41;;;;;;;;;;;;;;;9.57;43.98;100256.34;5052987;27;97498;-81
2021/05/06 02:00:09;;;;;;;;;;;;;;;9.17;44.73;100260.50;5055192;27;98884;-80
2021/05/06 02:02:36;;;;;;;;;;;;;;;9.59;44.26;100259.75;5040788;27;96680;-81
2021/05/06 02:05:02;;;;;;;;;;;;;;;9.80;43.60;100245.72;5054584;27;97198;-79
2021/05/06 02:07:28;;;;;;;;;;;;;;;9.64;43.37;100249.06;5054789;27;99106;-79
2021/05/06 02:09:57;;;;;;;;;;;;;;;9.62;43.54;100249.09;5049097;27;99254;-80
2021/05/06 02:12:22;;;;;;;;;;;;;;;9.71;43.40;100245.25;5053788;27;97158;-81
2021/05/06 02:14:52;;;;;;;;;;;;;;;9.44;44.21;100242.78;5056237;27;97035;-81
2021/05/06 02:17:18;;;;;;;;;;;;;;;9.42;44.36;100249.03;5054741;27;99201;-81
2021/05/06 02:19:47;;;;;;;;;;;;;;;9.58;44.17;100239.59;5053410;27;98915;-81
2021/05/06 02:22:13;;;;;;;;;;;;;;;9.27;44.81;100239.91;5040345;27;97502;-81
2021/05/06 02:24:39;;;;;;;;;;;;;;;9.35;44.52;100245.75;5044670;27;96990;-81
2021/05/06 02:27:05;;;;;;;;;;;;;;;10.00;43.66;100237.88;5052950;27;98850;-81
2021/05/06 02:29:31;;;;;;;;;;;;;;;9.48;44.59;100248.78;5044436;27;99096;-81
2021/05/06 02:31:57;;;;;;;;;;;;;;;9.23;45.11;100246.22;5055408;27;97819;-82
2021/05/06 02:34:23;;;;;;;;;;;;;;;9.10;45.73;100242.34;5055415;27;96775;-81
2021/05/06 02:36:48;;;;;;;;;;;;;;;9.24;45.89;100253.22;5075830;27;97575;-82
2021/05/06 02:39:14;;;;;;;;;;;;;;;9.51;45.29;100256.59;5071992;27;97406;-80
2021/05/06 02:41:40;;;;;;;;;;;;;;;9.36;45.82;100251.91;5059447;27;96679;-81
2021/05/06 02:44:07;;;;;;;;;;;;;;;9.28;46.14;100253.94;5076175;27;97042;-80
2021/05/06 02:46:33;;;;;;;;;;;;;;;8.95;46.55;100256.94;5071120;27;97879;-80
2021/05/06 02:48:58;;;;;;;;;;;;;;;9.39;45.43;100254.41;5068722;27;97694;-81
2021/05/06 02:51:29;;;;;;;;;;;;;;;9.74;45.05;100255.66;5072482;27;96637;-81
2021/05/06 02:53:55;;;;;;;;;;;;;;;9.03;46.27;100260.16;5070897;27;96707;-80
2021/05/06 02:56:27;;;;;;;;;;;;;;;9.15;46.55;100256.19;5067911;27;98972;-81
2021/05/06 02:59:08;;;;;;;;;;;;;;;8.97;46.70;100252.47;5064378;27;97933;-81
2021/05/06 03:04:19;;;;;;;;;;;;;;;9.09;46.80;100254.66;5041891;27;96753;-80
2021/05/06 03:06:49;;;;;;;;;;;;;;;8.91;47.14;100263.25;5045380;27;98897;-80
2021/05/06 03:09:27;;;;;;;;;;;;;;;9.22;46.75;100256.81;5051366;27;98574;-80
2021/05/06 03:12:02;;;;;;;;;;;;;;;9.23;46.31;100261.19;5038585;27;96885;-80
2021/05/06 03:14:47;;;;;;;;;;;;;;;9.08;46.29;100266.09;5036919;27;98016;-81
2021/05/06 03:22:54;;;;;;;;;;;;;;;9.39;46.01;100262.31;4954460;28;97964;-81
2021/05/06 03:25:21;;;;;;;;;;;;;;;9.13;46.39;100256.25;5005328;27;97450;-80
2021/05/06 03:27:51;;;;;;;;;;;;;;;9.39;45.99;100259.66;5051699;27;99308;-81
2021/05/06 03:30:36;;;;;;;;;;;;;;;9.71;45.08;100264.59;5052021;27;97682;-80
2021/05/06 03:36:01;;;;;;;;;;;;;;;9.23;46.40;100267.31;5072905;27;96666;-81
2021/05/06 03:44:07;;;;;;;;;;;;;;;9.30;46.18;100273.22;5050095;27;97002;-80
2021/05/06 03:46:54;;;;;;;;;;;;;;;9.28;46.48;100275.91;5070443;27;97442;-80
2021/05/06 04:03:36;;;;;;;;;;;;;;;9.75;44.43;100282.00;5053751;27;97185;-80
2021/05/06 04:14:42;;;;;;;;;;;;;;;9.74;44.12;100288.19;5048603;27;97072;-81
2021/05/06 04:17:20;;;;;;;;;;;;;;;9.76;44.05;100296.91;5054677;27;96829;-80
2021/05/06 04:25:41;;;;;;;;;;;;;;;9.95;42.99;100290.00;5051208;27;97128;-79
2021/05/06 04:28:44;;;;;;;;;;;;;;;9.77;43.40;100301.28;5053368;27;97081;-80
2021/05/06 04:35:26;;;;;;;;;;;;;;;10.24;42.73;100290.63;5040093;27;98053;-80
2021/05/06 04:36:58;;;;;;;;;;;;;;;10.60;41.77;100304.91;5054070;27;98727;-81
2021/05/06 04:39:40;;;;;;;;;;;;;;;10.44;41.56;100300.34;5052212;27;98473;-80
2021/05/06 04:50:28;;;;;;;;;;;;;;;10.79;40.83;100308.50;5052908;27;97253;-81
2021/05/06 04:55:41;;;;;;;;;;;;;;;11.32;39.77;100310.53;5042570;27;97113;-81
2021/05/06 04:58:39;;;;;;;;;;;;;;;11.09;39.99;100306.28;5047283;27;98639;-81
2021/05/06 05:03:54;;;;;;;;;;;;;;;11.50;39.41;100307.06;5046081;27;96748;-80
2021/05/06 05:06:22;;;;;;;;;;;;;;;11.55;39.10;100307.69;5051078;27;99536;-80
2021/05/06 05:08:52;;;;;;;;;;;;;;;10.81;40.47;100312.84;5044949;27;99183;-81
2021/05/06 05:11:33;;;;;;;;;;;;;;;10.20;41.38;100318.06;5050358;27;96894;-80
2021/05/06 05:14:30;;;;;;;;;;;;;;;10.66;41.00;100315.22;5047090;27;97098;-80
2021/05/06 05:19:57;;;;;;;;;;;;;;;10.53;40.96;100321.94;5045514;27;97249;-80
2021/05/06 05:25:08;;;;;;;;;;;;;;;11.65;39.02;100310.78;5042095;27;98077;-79
2021/05/06 05:27:35;;;;;;;;;;;;;;;13.75;34.58;100321.28;5046561;27;99957;-79
2021/05/06 05:30:01;;;;;;;;;;;;;;;13.42;34.60;100311.56;5039519;27;98863;-79
2021/05/06 05:32:27;;;;;;;;;;;;;;;12.86;35.65;100311.03;5044807;27;97317;-79
2021/05/06 05:34:57;;;;;;;;;;;;;;;12.75;35.74;100312.44;5051707;27;96766;-79
2021/05/06 05:37:25;;;;;;;;;;;;;;;12.65;36.32;100302.38;5055960;27;97659;-80
2021/05/06 05:40:05;;;;;;;;;;;;;;;11.72;37.53;100308.72;5053334;27;99217;-79
2021/05/06 05:42:39;;;;;;;;;;;;;;;12.14;37.25;100311.97;5057636;27;96806;-79
2021/05/06 05:48:35;;;;;;;;;;;;;;;12.35;36.89;100307.41;5047412;27;97938;-80
2021/05/06 05:56:24;;;;;;;;;;;;;;;12.77;35.70;100301.75;5054021;27;96750;-81
2021/05/06 05:58:51;;;;;;;;;;;;;;;12.19;36.42;100304.69;5058688;27;99304;-82
2021/05/06 06:01:17;;;;;;;;;;;;;;;12.52;36.49;100306.59;5052231;27;98120;-80
2021/05/06 06:03:43;;;;;;;;;;;;;;;12.72;35.89;100298.47;5049499;27;97365;-80
2021/05/06 06:06:09;;;;;;;;;;;;;;;12.59;36.28;100300.03;5054641;27;96817;-80
2021/05/06 06:08:37;;;;;;;;;;;;;;;13.05;35.26;100304.69;5057795;27;98109;-81
2021/05/06 06:11:03;;;;;;;;;;;;;;;13.22;34.86;100297.66;5051297;27;99133;-79
2021/05/06 06:13:28;;;;;;;;;;;;;;;12.97;35.32;100298.06;5051939;27;96886;-79
2021/05/06 06:15:59;;;;;;;;;;;;;;;13.16;35.19;100299.69;5049940;27;98315;-80
2021/05/06 06:18:32;;;;;;;;;;;;;;;12.89;35.57;100303.75;5054543;27;97498;-80
2021/05/06 06:21:03;;;;;;;;;;;;;;;12.49;36.49;100285.53;5046948;27;99188;-80
2021/05/06 06:23:28;;;;;;;;;;;;;;;12.76;36.28;100306.19;5057747;27;98475;-80
2021/05/06 06:25:54;;;;;;;;;;;;;;;13.08;35.50;100315.13;5051753;27;98925;-78
2021/05/06 06:28:20;;;;;;;;;;;;;;;13.16;35.57;100306.78;5049778;27;100137;-79
2021/05/06 06:30:46;;;;;;;;;;;;;;;13.35;35.09;100312.84;5048981;27;99084;-78
2021/05/06 06:33:12;;;;;;;;;;;;;;;14.34;33.70;100308.16;5048272;27;97329;-77
2021/05/06 06:35:39;;;;;;;;;;;;;;;14.55;33.27;100300.75;5045026;27;97836;-78
2021/05/06 06:38:04;;;;;;;;;;;;;;;14.18;34.09;100306.44;5048891;27;97879;-78
2021/05/06 06:40:30;;;;;;;;;;;;;;;14.92;32.81;100295.88;5041635;27;98791;-78
2021/05/06 06:42:56;;;;;;;;;;;;;;;16.16;29.95;100296.00;5049592;27;96978;-78
2021/05/06 06:45:22;;;;;;;;;;;;;;;15.73;30.69;100291.75;5047589;27;97798;-79
2021/05/06 06:47:52;;;;;;;;;;;;;;;15.43;31.08;100294.47;5046385;27;100401;-79
2021/05/06 06:50:18;;;;;;;;;;;;;;;14.79;32.57;100286.94;5045068;27;99398;-79
2021/05/06 06:52:45;;;;;;;;;;;;;;;14.71;32.20;100293.56;5043039;27;97162;-79
2021/05/06 06:55:11;;;;;;;;;;;;;;;13.83;33.67;100300.47;5051153;27;97684;-78
2021/05/06 06:57:37;;;;;;;;;;;;;;;14.72;32.45;100297.94;5052402;27;97847;-78
2021/05/06 07:00:03;;;;;;;;;;;;;;;15.26;31.53;100287.56;5054188;27;99365;-79
2021/05/06 07:02:29;;;;;;;;;;;;;;;15.05;31.65;100287.06;5053388;27;96975;-78
2021/05/06 07:04:54;;;;;;;;;;;;;;;14.84;31.63;100288.38;5043059;27;97410;-77
2021/05/06 07:07:21;;;;;;;;;;;;;;;14.99;31.02;100290.09;5051435;27;98889;-78
2021/05/06 07:09:48;;;;;;;;;;;;;;;16.28;29.01;100299.66;5054854;27;98820;-79
2021/05/06 07:12:13;;;;;;;;;;;;;;;15.36;30.28;100303.84;5065750;27;96647;-80
2021/05/06 07:14:39;;;;;;;;;;;;;;;15.04;31.02;100303.13;5054795;27;96710;-79
2021/05/06 07:17:06;;;;;;;;;;;;;;;14.83;31.64;100307.09;5054626;27;98128;-79
2021/05/06 07:19:31;;;;;;;;;;;;;;;13.73;33.11;100296.59;5041791;27;99260;-79
2021/05/06 07:21:57;;;;;;;;;;;;;;;13.68;33.71;100307.50;5052955;27;96597;-79
2021/05/06 07:24:23;;;;;;;;;;;;;;;14.16;32.66;100306.56;5057115;27;97005;-79
2021/05/06 07:26:50;;;;;;;;;;;;;;;14.57;32.11;100303.34;5039959;27;98219;-79
2021/05/06 07:29:18;;;;;;;;;;;;;;;13.80;32.41;100301.50;5043017;27;99322;-79
2021/05/06 07:31:44;;;;;;;;;;;;;;;14.19;32.59;100303.69;5042587;27;96878;-79
2021/05/06 07:34:10;;;;;;;;;;;;;;;14.60;32.25;100303.13;5037504;27;97663;-78
2021/05/06 07:36:36;;;;;;;;;;;;;;;14.81;31.74;100304.53;5044093;27;97617;-78
2021/05/06 07:39:01;;;;;;;;;;;;;;;14.56;31.75;100291.84;5046323;27;99180;-77
2021/05/06 07:41:27;;;;;;;;;;;;;;;14.97;30.99;100297.31;5048064;27;96838;-78
2021/05/06 07:43:54;;;;;;;;;;;;;;;14.47;31.57;100302.13;5043863;27;96927;-77
2021/05/06 07:46:20;;;;;;;;;;;;;;;14.37;32.24;100301.81;5047546;27;101270;-77
2021/05/06 07:48:45;;;;;;;;;;;;;;;14.02;33.33;100302.94;5050578;27;98755;-77
2021/05/06 07:51:11;;;;;;;;;;;;;;;13.72;33.18;100306.38;5049916;27;98868;-77
2021/05/06 07:53:42;;;;;;;;;;;;;;;13.63;33.39;100304.25;5052063;27;97298;-78
2021/05/06 07:56:08;;;;;;;;;;;;;;;13.43;33.08;100299.16;5038000;27;99081;-78
2021/05/06 07:58:33;;;;;;;;;;;;;;;13.08;33.30;100306.31;5052166;27;98851;-78
2021/05/06 08:01:00;;;;;;;;;;;;;;;13.34;33.34;100304.94;5045181;27;98976;-77
2021/05/06 08:03:26;;;;;;;;;;;;;;;13.40;32.84;100307.28;5038345;27;97919;-78
2021/05/06 08:05:56;;;;;;;;;;;;;;;13.77;32.31;100314.09;5045038;27;98969;-78
2021/05/06 08:08:23;;;;;;;;;;;;;;;13.87;32.61;100302.88;5048139;27;98847;-77
2021/05/06 08:10:48;;;;;;;;;;;;;;;13.95;32.81;100313.06;5050834;27;96796;-78
2021/05/06 08:13:14;;;;;;;;;;;;;;;14.15;32.43;100309.28;5045825;27;98786;-78
2021/05/06 08:15:40;;;;;;;;;;;;;;;13.71;32.24;100303.81;5051512;27;98937;-78
2021/05/06 08:18:07;;;;;;;;;;;;;;;14.29;31.59;100309.34;5049855;27;98755;-78
2021/05/06 08:20:33;;;;;;;;;;;;;;;13.77;31.68;100314.97;5055008;27;97015;-78
2021/05/06 08:22:59;;;;;;;;;;;;;;;13.95;31.80;100313.06;5044133;27;97037;-78
2021/05/06 08:25:26;;;;;;;;;;;;;;;13.43;32.57;100315.09;5045427;27;99584;-78
2021/05/06 08:27:52;;;;;;;;;;;;;;;12.97;32.85;100304.22;5048500;27;98530;-78
2021/05/06 08:30:19;;;;;;;;;;;;;;;13.69;31.68;100303.91;5052844;27;97854;-78
2021/05/06 08:32:44;;;;;;;;;;;;;;;13.78;31.67;100303.41;5052366;27;96890;-77
2021/05/06 08:35:12;;;;;;;;;;;;;;;13.87;31.70;100291.38;5048232;27;96993;-78
2021/05/06 08:37:38;;;;;;;;;;;;;;;14.59;31.07;100299.63;5047251;27;98854;-80
2021/05/06 08:40:05;;;;;;;;;;;;;;;15.54;29.46;100292.91;5047381;27;99280;-79
2021/05/06 08:42:32;;;;;;;;;;;;;;;15.74;29.30;100296.13;5051921;27;96871;-79
2021/05/06 08:44:58;;;;;;;;;;;;;;;15.34;29.83;100295.94;5045755;27;99408;-80
2021/05/06 08:47:24;;;;;;;;;;;;;;;15.92;28.62;100285.13;5046187;27;100278;-78
2021/05/06 08:49:50;;;;;;;;;;;;;;;16.42;27.97;100291.59;5046499;27;96918;-78
2021/05/06 08:52:19;;;;;;;;;;;;;;;16.05;28.57;100303.84;5048336;27;96881;-79
2021/05/06 08:54:46;;;;;;;;;;;;;;;15.99;28.92;100301.59;5048579;27;99517;-79
2021/05/06 08:57:12;;;;;;;;;;;;;;;15.98;28.88;100305.19;5047621;27;97646;-79
2021/05/06 08:59:37;;;;;;;;;;;;;;;15.90;28.78;100300.34;5047165;27;96871;-78
2021/05/06 09:02:03;;;;;;;;;;;;;;;15.09;29.57;100311.72;5044447;27;97020;-79
2021/05/06 09:04:31;;;;;;;;;;;;;;;15.57;28.99;100307.81;5042184;27;100406;-78
2021/05/06 09:06:57;;;;;;;;;;;;;;;15.87;29.08;100318.38;5045135;27;98858;-79
2021/05/06 09:09:25;;;;;;;;;;;;;;;15.77;28.81;100311.88;5048025;27;96944;-78
2021/05/06 09:11:51;;;;;;;;;;;;;;;15.87;29.00;100305.03;5047999;27;97229;-79
2021/05/06 09:14:17;;;;;;;;;;;;;;;16.09;28.59;100302.69;5046655;27;97795;-78
2021/05/06 09:16:43;;;;;;;;;;;;;;;16.32;28.71;100304.72;5045701;27;97976;-78
2021/05/06 09:19:10;;;;;;;;;;;;;;;16.70;28.46;100311.97;5051169;27;97860;-78
2021/05/06 09:21:36;;;;;;;;;;;;;;;16.11;28.71;100303.44;5049207;27;97101;-78
2021/05/06 09:24:13;;;;;;;;;;;;;;;15.60;29.78;100312.13;5045868;27;99352;-79
2021/05/06 09:26:40;;;;;;;;;;;;;;;15.85;29.65;100312.25;5050514;27;98308;-78
2021/05/06 09:29:07;;;;;;;;;;;;;;;15.43;30.48;100306.00;5043634;27;98717;-78
2021/05/06 09:31:37;;;;;;;;;;;;;;;14.58;31.87;100320.97;5044728;27;98010;-78
2021/05/06 09:34:07;;;;;;;;;;;;;;;14.58;32.26;100316.50;5044418;27;98233;-79
2021/05/06 09:36:33;;;;;;;;;;;;;;;15.03;31.63;100318.22;5044865;27;98788;-77
2021/05/06 09:39:00;;;;;;;;;;;;;;;15.75;30.90;100317.31;5048399;27;98992;-78
2021/05/06 09:41:27;;;;;;;;;;;;;;;16.37;30.13;100304.41;5049961;27;96934;-77
2021/05/06 09:43:54;;;;;;;;;;;;;;;16.69;29.42;100295.13;5043333;27;98272;-78
2021/05/06 09:46:27;;;;;;;;;;;;;;;16.97;28.59;100293.25;5043304;27;99235;-77
2021/05/06 09:48:56;;;;;;;;;;;;;;;17.51;27.67;100299.22;5045181;27;97481;-78
2021/05/06 09:51:33;;;;;;;;;;;;;;;16.71;28.80;100290.53;5048011;27;97411;-79
2021/05/06 09:53:58;;;;;;;;;;;;;;;15.24;30.66;100296.59;5044248;27;98146;-78
2021/05/06 09:56:25;;;;;;;;;;;;;;;15.36;30.97;100291.34;5045313;27;99521;-78
2021/05/06 09:58:50;;;;;;;;;;;;;;;15.38;31.02;100296.59;5048155;27;96967;-79
2021/05/06 10:01:17;;;;;;;;;;;;;;;15.88;30.71;100298.75;5051981;27;96780;-78
2021/05/06 10:03:44;;;;;;;;;;;;;;;15.61;31.33;100297.84;5058290;27;98310;-77
2021/05/06 10:06:11;;;;;;;;;;;;;;;15.15;31.99;100301.53;5045563;27;99435;-79
2021/05/06 10:08:37;;;;;;;;;;;;;;;15.19;32.27;100304.00;5056931;27;98775;-79
2021/05/06 10:11:07;;;;;;;;;;;;;;;15.31;32.17;100308.56;5061656;27;98881;-80
2021/05/06 10:13:33;;;;;;;;;;;;;;;13.75;35.36;100313.31;5058645;27;98544;-79
2021/05/06 10:15:58;;;;;;;;;;;;;;;14.26;34.52;100310.38;5065147;27;98861;-79
2021/05/06 10:18:25;;;;;;;;;;;;;;;14.50;34.48;100313.47;5058097;27;96857;-79
2021/05/06 10:20:51;;;;;;;;;;;;;;;14.94;33.73;100307.31;5050132;27;96932;-80
2021/05/06 10:23:17;;;;;;;;;;;;;;;14.74;33.92;100305.84;5054798;27;98322;-79
2021/05/06 10:25:44;;;;;;;;;;;;;;;14.87;33.76;100311.28;5044704;27;98948;-79
2021/05/06 10:28:11;;;;;;;;;;;;;;;14.35;34.80;100312.50;5045745;27;98037;-78
2021/05/06 10:30:37;;;;;;;;;;;;;;;14.46;35.04;100311.06;5036124;27;97311;-78
2021/05/06 10:33:04;;;;;;;;;;;;;;;14.27;35.15;100320.06;5049611;27;98900;-78
2021/05/06 10:35:30;;;;;;;;;;;;;;;14.67;34.59;100323.97;5047602;27;98395;-79
2021/05/06 10:37:58;;;;;;;;;;;;;;;14.59;34.97;100334.19;5044746;27;96836;-79
2021/05/06 10:40:25;;;;;;;;;;;;;;;14.80;34.77;100333.88;5046731;27;97065;-79
2021/05/06 10:42:52;;;;;;;;;;;;;;;14.11;37.09;100339.63;5042680;27;99461;-79
2021/05/06 10:45:31;;;;;;;;;;;;;;;13.68;38.84;100352.63;5043659;27;99273;-79
2021/05/06 10:47:57;;;;;;;;;;;;;;;13.56;41.26;100350.63;5044294;27;97156;-79
2021/05/06 10:50:24;;;;;;;;;;;;;;;13.63;41.73;100354.69;5046962;27;97090;-80
2021/05/06 10:52:51;;;;;;;;;;;;;;;13.32;42.70;100357.25;5044243;27;102011;-79
2021/05/06 10:55:37;;;;;;;;;;;;;;;13.88;43.30;100352.41;5046318;27;99212;-79
2021/05/06 10:58:17;;;;;;;;;;;;;;;13.74;44.13;100354.94;5046659;27;97087;-79
2021/05/06 11:00:43;;;;;;;;;;;;;;;13.71;43.85;100339.19;5050339;27;97958;-78
2021/05/06 11:03:24;;;;;;;;;;;;;;;13.57;43.70;100341.75;5041665;27;100719;-79
2021/05/06 11:05:50;;;;;;;;;;;;;;;14.44;43.77;100337.72;5044236;27;98966;-78
2021/05/06 11:08:26;;;;;;;;;;;;;;;13.95;45.41;100337.84;5045527;27;98820;-78
2021/05/06 11:11:11;;;;;;;;;;;;;;;13.88;45.37;100335.59;5046742;27;98864;-80
2021/05/06 11:13:52;;;;;;;;;;;;;;;14.24;45.19;100336.19;5046486;27;98526;-77
2021/05/06 11:16:18;;;;;;;;;;;;;;;14.25;44.94;100332.56;5043453;27;99401;-80
2021/05/06 11:18:46;;;;;;;;;;;;;;;13.98;44.07;100326.16;5045931;27;97432;-78
2021/05/06 11:21:34;;;;;;;;;;;;;;;14.88;43.60;100329.81;5047973;27;97354;-78
2021/05/06 11:24:12;;;;;;;;;;;;;;;14.47;43.51;100318.09;5043501;27;99270;-79
2021/05/06 11:26:53;;;;;;;;;;;;;;;14.53;43.04;100329.22;5040901;27;98070;-78
2021/05/06 11:29:27;;;;;;;;;;;;;;;14.17;44.45;100310.94;5047983;27;97202;-77
2021/05/06 11:31:54;;;;;;;;;;;;;;;14.34;44.53;100312.59;5041712;27;96943;-79
2021/05/06 11:34:34;;;;;;;;;;;;;;;14.18;44.37;100303.78;5042262;27;100996;-79
2021/05/06 11:37:21;;;;;;;;;;;;;;;14.92;43.40;100306.53;5045281;27;98960;-78
2021/05/06 11:39:50;;;;;;;;;;;;;;;15.37;41.96;100301.06;5047353;27;98015;-79
2021/05/06 11:42:18;;;;;;;;;;;;;;;15.91;39.55;100293.22;5046869;27;96889;-78
2021/05/06 11:44:59;;;;;;;;;;;;;;;15.75;39.31;100296.00;5053179;27;98100;-79
2021/05/06 11:47:28;;;;;;;;;;;;;;;16.34;38.95;100283.28;5048839;27;98073;-78
2021/05/06 11:49:54;;;;;;;;;;;;;;;16.56;37.55;100280.00;5031633;27;97228;-79
2021/05/06 11:52:31;;;;;;;;;;;;;;;16.89;35.91;100299.09;5044882;27;99095;-79
2021/05/06 11:54:58;;;;;;;;;;;;;;;16.77;36.50;100286.59;5043456;27;99017;-79
2021/05/06 11:57:25;;;;;;;;;;;;;;;16.65;37.32;100285.63;5047043;27;99877;-78
2021/05/06 11:59:51;;;;;;;;;;;;;;;16.81;37.53;100280.09;5045823;27;98400;-78
2021/05/06 12:02:16;;;;;;;;;;;;;;;16.48;38.04;100279.66;5036276;27;97894;-78
2021/05/06 12:04:45;;;;;;;;;;;;;;;16.80;37.53;100291.75;5037606;27;98269;-80
2021/05/06 12:07:11;;;;;;;;;;;;;;;17.01;36.86;100284.03;5044809;27;99268;-78
2021/05/06 12:09:37;;;;;;;;;;;;;;;16.47;38.08;100283.31;5041682;27;98108;-77
2021/05/06 12:12:04;;;;;;;;;;;;;;;16.47;37.19;100283.31;5043506;27;96970;-79
2021/05/06 12:14:31;;;;;;;;;;;;;;;16.54;36.99;100272.09;5040464;27;99070;-78
2021/05/06 12:16:57;;;;;;;;;;;;;;;16.65;36.69;100274.09;5042892;27;98024;-79
2021/05/06 12:19:22;;;;;;;;;;;;;;;16.31;36.96;100273.66;5043580;27;96959;-77
2021/05/06 12:21:51;;;;;;;;;;;;;;;16.66;36.69;100270.47;5041189;27;98124;-79
2021/05/06 12:24:25;;;;;;;;;;;;;;;16.88;36.06;100267.19;5045917;27;99111;-79
2021/05/06 12:26:51;;;;;;;;;;;;;;;17.24;35.45;100261.09;5043544;27;99220;-79
2021/05/06 12:29:21;;;;;;;;;;;;;;;17.56;35.27;100259.66;5030187;27;97097;-79
2021/05/06 12:31:48;;;;;;;;;;;;;;;18.05;34.74;100262.28;5030786;27;98517;-80
2021/05/06 12:34:14;;;;;;;;;;;;;;;18.47;34.06;100255.56;5038316;27;99195;-79
2021/05/06 12:36:47;;;;;;;;;;;;;;;18.67;34.24;100248.72;5022082;27;97719;-79
2021/05/06 12:39:14;;;;;;;;;;;;;;;18.06;33.75;100253.31;5024725;28;97247;-79
2021/05/06 12:41:48;;;;;;;;;;;;;;;17.91;33.24;100241.09;5024523;27;97615;-78
2021/05/06 12:44:13;;;;;;;;;;;;;;;17.98;32.93;100244.19;5028908;27;99892;-79
2021/05/06 12:46:40;;;;;;;;;;;;;;;18.07;32.45;100232.78;5032016;27;97715;-79
2021/05/06 12:49:06;;;;;;;;;;;;;;;17.11;32.00;100243.28;5027838;27;97408;-78
2021/05/06 12:51:33;;;;;;;;;;;;;;;17.56;31.29;100240.09;5025428;27;98756;-78
2021/05/06 12:54:00;;;;;;;;;;;;;;;18.18;30.82;100235.53;5033056;28;99000;-79
2021/05/06 12:56:27;;;;;;;;;;;;;;;16.13;32.89;100232.25;5027847;27;98808;-79
2021/05/06 12:58:53;;;;;;;;;;;;;;;17.39;31.16;100233.31;5028847;27;97228;-79
2021/05/06 13:01:28;;;;;;;;;;;;;;;17.63;31.11;100231.56;5009680;28;97137;-79
2021/05/06 13:03:58;;;;;;;;;;;;;;;17.87;30.45;100235.09;5028005;27;98987;-78
2021/05/06 13:06:30;;;;;;;;;;;;;;;18.17;29.88;100234.66;5024309;27;100575;-80
2021/05/06 13:08:58;;;;;;;;;;;;;;;18.01;29.41;100230.56;5027481;27;97908;-77
2021/05/06 13:11:24;;;;;;;;;;;;;;;18.53;29.09;100228.34;5025740;27;97804;-78
2021/05/06 13:13:50;;;;;;;;;;;;;;;18.84;28.38;100218.00;5028975;27;99011;-78
2021/05/06 13:16:17;;;;;;;;;;;;;;;18.53;28.89;100211.44;5026168;27;99094;-79
2021/05/06 13:18:59;;;;;;;;;;;;;;;19.21;27.96;100215.94;5029246;27;96896;-78
2021/05/06 13:21:24;;;;;;;;;;;;;;;18.79;27.68;100212.13;5031147;27;97699;-79
2021/05/06 13:23:56;;;;;;;;;;;;;;;17.99;28.32;100209.28;5037337;27;97800;-79
2021/05/06 13:26:29;;;;;;;;;;;;;;;17.48;29.30;100222.81;5032011;27;101375;-79
2021/05/06 13:28:59;;;;;;;;;;;;;;;18.60;27.77;100208.19;5029296;27;96981;-79
2021/05/06 13:31:43;;;;;;;;;;;;;;;20.02;26.21;100208.38;5036503;27;96820;-79
2021/05/06 13:34:22;;;;;;;;;;;;;;;19.14;27.13;100195.97;5031928;27;98891;-79
2021/05/06 13:37:02;;;;;;;;;;;;;;;19.05;27.38;100205.59;5027990;27;98896;-79
2021/05/06 13:39:28;;;;;;;;;;;;;;;19.22;26.60;100196.22;5025751;27;97056;-77
2021/05/06 13:41:54;;;;;;;;;;;;;;;18.57;25.92;100202.25;5034091;27;96896;-78
2021/05/06 13:44:23;;;;;;;;;;;;;;;19.86;25.01;100187.34;5050292;28;98851;-77
2021/05/06 13:46:53;;;;;;;;;;;;;;;19.84;24.69;100196.50;5035465;27;100837;-79
2021/05/06 13:49:20;;;;;;;;;;;;;;;20.84;23.86;100195.16;5031337;27;97107;-78
2021/05/06 13:51:46;;;;;;;;;;;;;;;20.36;24.10;100190.34;5027580;27;97390;-77
2021/05/06 13:54:12;;;;;;;;;;;;;;;19.73;23.93;100188.50;5034604;27;100263;-78
2021/05/06 13:56:38;;;;;;;;;;;;;;;19.66;24.48;100195.34;5036119;27;99199;-80
2021/05/06 13:59:04;;;;;;;;;;;;;;;18.84;25.52;100193.91;5028711;27;98144;-80
2021/05/06 14:01:30;;;;;;;;;;;;;;;20.57;23.71;100193.03;5031588;27;97334;-79
2021/05/06 14:03:57;;;;;;;;;;;;;;;20.03;24.07;100191.31;5031140;27;99193;-78
2021/05/06 14:06:24;;;;;;;;;;;;;;;21.35;23.15;100196.00;5028018;27;98835;-78
2021/05/06 14:08:50;;;;;;;;;;;;;;;22.97;20.87;100185.44;5022843;27;98452;-80
2021/05/06 14:11:16;;;;;;;;;;;;;;;23.55;20.65;100187.06;5042187;27;97830;-78
2021/05/06 14:13:41;;;;;;;;;;;;;;;23.50;19.92;100189.38;5031019;27;98138;-77
2021/05/06 14:16:08;;;;;;;;;;;;;;;22.09;21.06;100184.84;5027470;27;98831;-77
2021/05/06 14:18:34;;;;;;;;;;;;;;;23.42;20.29;100193.63;5025767;27;97358;-78
2021/05/06 14:21:03;;;;;;;;;;;;;;;22.34;21.23;100186.97;5030312;27;96935;-77
2021/05/06 14:23:32;;;;;;;;;;;;;;;20.65;23.09;100179.81;5030294;27;100103;-79
2021/05/06 14:25:58;;;;;;;;;;;;;;;20.60;23.54;100180.22;5025778;27;98829;-78
2021/05/06 14:28:24;;;;;;;;;;;;;;;19.80;23.27;100178.97;5027938;27;97811;-78
2021/05/06 14:30:51;;;;;;;;;;;;;;;19.98;24.21;100180.13;5014747;27;98319;-78
2021/05/06 14:33:16;;;;;;;;;;;;;;;20.03;23.85;100172.53;5029853;27;98438;-79
2021/05/06 14:35:42;;;;;;;;;;;;;;;20.30;23.41;100167.53;5028689;27;99183;-78
2021/05/06 14:38:09;;;;;;;;;;;;;;;19.84;23.90;100177.72;5023944;27;97178;-79
2021/05/06 14:40:36;;;;;;;;;;;;;;;19.28;24.57;100185.88;5024550;27;98783;-80
2021/05/06 14:43:02;;;;;;;;;;;;;;;19.33;24.94;100177.44;5024050;27;102257;-80
2021/05/06 14:45:28;;;;;;;;;;;;;;;20.16;23.98;100177.72;5026697;27;97941;-79
2021/05/06 14:47:56;;;;;;;;;;;;;;;25.25;17.97;100169.59;5027656;27;97145;-79
2021/05/06 14:50:36;;;;;;;;;;;;;;;23.02;19.33;100169.69;5029341;27;98849;-80
2021/05/06 14:53:12;;;;;;;;;;;;;;;20.75;21.71;100169.09;5016139;27;99008;-79
2021/05/06 14:55:39;;;;;;;;;;;;;;;20.46;22.15;100168.94;5025527;27;99069;-79
2021/05/06 14:58:09;;;;;;;;;;;;;;;19.28;23.32;100164.44;5026085;27;97867;-80